Time;durP1;ratioP1;P1;durP2;ratioP2;P2;SDS_P1;SDS_P2;PMS_P1;PMS_P2;Temp;Humidity;BMP_temperature;BMP_pressure;BME280_temperature;BME280_humidity;BME280_pressure;Samples;Min_cycle;Max_cycle;Signal;HPM_P1;HPM_P2
2021/03/27 00:02:30;;;;;;;48.83;26.02;;;;;;;7.52;52.25;100525.19;4478848;31;33708;-78
2021/03/27 00:05:14;;;;;;;51.97;27.45;;;;;;;7.59;51.96;100512.78;4488017;31;34707;-78
2021/03/27 00:08:26;;;;;;;50.33;25.65;;;;;;;7.42;52.42;100521.87;4487664;31;34347;-79
2021/03/27 00:11:05;;;;;;;48.80;24.90;;;;;;;7.42;52.44;100521.87;4482276;31;33817;-79
2021/03/27 00:13:49;;;;;;;49.90;24.83;;;;;;;7.27;52.86;100522.19;4475484;31;34274;-79
2021/03/27 00:16:39;;;;;;;50.33;26.02;;;;;;;7.06;53.75;100522.56;4490323;31;34544;-78
2021/03/27 00:19:10;;;;;;;54.20;28.40;;;;;;;7.00;53.73;100520.03;4477826;31;33276;-79
2021/03/27 00:21:45;;;;;;;50.97;26.63;;;;;;;7.04;53.57;100511.22;4475005;31;33436;-79
2021/03/27 00:24:14;;;;;;;56.83;27.40;;;;;;;7.07;53.27;100526.91;4474918;32;33396;-79
2021/03/27 00:26:50;;;;;;;64.65;30.05;;;;;;;6.98;53.54;100521.81;4492499;31;33747;-79
2021/03/27 00:29:25;;;;;;;54.33;28.87;;;;;;;6.84;53.98;100520.31;4491382;31;33601;-79
2021/03/27 00:32:02;;;;;;;53.00;27.73;;;;;;;6.92;53.66;100513.16;4489211;31;32915;-79
2021/03/27 00:34:37;;;;;;;52.92;28.70;;;;;;;6.99;53.72;100518.31;4487220;31;34389;-79
2021/03/27 00:37:08;;;;;;;48.87;25.75;;;;;;;7.11;53.49;100512.84;4480220;31;34291;-79
2021/03/27 00:39:49;;;;;;;57.03;28.77;;;;;;;6.90;53.83;100512.31;4477646;31;34643;-79
2021/03/27 00:42:25;;;;;;;57.38;27.80;;;;;;;6.81;53.79;100519.50;4476094;31;33335;-78
2021/03/27 00:44:56;;;;;;;55.38;26.90;;;;;;;6.87;53.56;100519.38;4487505;31;33642;-78
2021/03/27 00:47:33;;;;;;;51.80;25.85;;;;;;;6.72;54.46;100517.03;4478130;31;33456;-78
2021/03/27 00:50:14;;;;;;;53.35;25.95;;;;;;;6.59;54.84;100518.97;4476831;31;33669;-78
2021/03/27 00:52:46;;;;;;;50.25;25.65;;;;;;;6.57;54.83;100515.50;4475439;31;34309;-78
2021/03/27 00:55:20;;;;;;;49.88;26.17;;;;;;;6.55;55.07;100519.91;4490715;31;34110;-79
2021/03/27 00:57:56;;;;;;;49.05;25.37;;;;;;;6.46;55.31;100518.31;4479359;32;33398;-79
2021/03/27 01:00:28;;;;;;;54.83;26.15;;;;;;;6.52;54.91;100519.97;4493659;31;32620;-79
2021/03/27 01:03:19;;;;;;;48.90;25.35;;;;;;;6.52;54.92;100512.97;4495596;31;32992;-79
2021/03/27 01:05:51;;;;;;;49.08;24.85;;;;;;;6.50;54.55;100516.47;4479173;31;33314;-79
2021/03/27 01:08:22;;;;;;;50.72;25.65;;;;;;;6.27;55.39;100512.47;4491134;31;33776;-78
2021/03/27 01:11:02;;;;;;;47.28;23.60;;;;;;;6.48;54.63;100520.91;4478926;31;33486;-79
2021/03/27 01:13:43;;;;;;;49.60;25.23;;;;;;;6.56;54.16;100519.91;4480393;31;33538;-79
2021/03/27 01:16:15;;;;;;;41.55;23.30;;;;;;;6.15;55.32;100517.88;4494309;31;34293;-79
2021/03/27 01:18:48;;;;;;;;;;;;;;;6.16;55.43;100517.00;4481090;31;33670;-79
2021/03/27 01:21:24;;;;;;;49.78;23.83;;;;;;;6.30;54.84;100512.41;4479326;31;33823;-78
2021/03/27 01:24:09;;;;;;;53.08;24.87;;;;;;;6.32;55.16;100515.91;4479531;31;33214;-78
2021/03/27 01:26:43;;;;;;;49.53;24.33;;;;;;;6.30;55.20;100507.16;4493342;31;34369;-78
2021/03/27 01:29:14;;;;;;;50.50;25.70;;;;;;;6.03;56.08;100492.72;4492780;31;32770;-78
2021/03/27 01:32:04;;;;;;;50.45;25.35;;;;;;;6.08;55.87;100500.53;4494217;31;33383;-79
2021/03/27 01:34:36;;;;;;;49.42;24.95;;;;;;;6.19;55.41;100502.97;4492044;31;33221;-79
2021/03/27 01:37:15;;;;;;;50.05;24.40;;;;;;;6.23;55.38;100500.28;4493435;31;33645;-78
2021/03/27 01:39:58;;;;;;;49.55;25.37;;;;;;;6.18;55.17;100502.13;4480159;31;34158;-78
2021/03/27 01:42:55;;;;;;;47.75;23.38;;;;;;;6.35;54.60;100500.09;4482034;31;33858;-79
2021/03/27 01:45:39;;;;;;;46.28;22.83;;;;;;;6.37;54.45;100498.34;4494379;31;34067;-79
2021/03/27 01:48:25;;;;;;;47.78;23.48;;;;;;;6.03;55.53;100497.06;4480143;31;33480;-79
2021/03/27 01:51:00;;;;;;;51.55;25.42;;;;;;;5.97;55.46;100492.78;4492590;31;33521;-79
2021/03/27 01:54:04;;;;;;;48.20;23.42;;;;;;;6.14;55.00;100496.03;4490620;31;33145;-78
2021/03/27 01:57:00;;;;;;;51.90;24.45;;;;;;;6.08;55.03;100492.66;4477785;31;33050;-78
2021/03/27 01:59:34;;;;;;;52.38;25.58;;;;;;;6.03;55.31;100499.69;4493923;31;34282;-78
2021/03/27 02:02:31;;;;;;;47.25;24.00;;;;;;;6.14;55.10;100495.19;4478427;31;32948;-78
2021/03/27 02:05:03;;;;;;;50.20;22.80;;;;;;;6.11;55.08;100497.84;4463326;31;34260;-79
2021/03/27 02:07:45;;;;;;;48.85;23.52;;;;;;;5.95;55.54;100498.94;4479313;31;33417;-78
2021/03/27 02:10:45;;;;;;;46.80;23.45;;;;;;;5.90;56.05;100502.47;4490335;31;33338;-78
2021/03/27 02:13:30;;;;;;;45.95;24.08;;;;;;;5.75;56.07;100497.44;4487338;31;35393;-78
2021/03/27 02:16:24;;;;;;;49.90;25.02;;;;;;;5.75;55.82;100489.56;4490375;31;34364;-78
2021/03/27 02:19:12;;;;;;;45.15;24.15;;;;;;;5.86;55.45;100486.81;4480159;31;33361;-78
2021/03/27 02:21:53;;;;;;;48.97;22.75;;;;;;;5.74;55.94;100487.81;4490778;31;34568;-78
2021/03/27 02:24:48;;;;;;;48.75;22.42;;;;;;;5.71;56.54;100485.25;4475731;31;33841;-78
2021/03/27 02:27:43;;;;;;;48.40;24.55;;;;;;;5.74;55.88;100492.19;4477610;31;33206;-78
2021/03/27 02:30:15;;;;;;;50.30;23.98;;;;;;;5.50;56.75;100498.59;4493060;31;33225;-78
2021/03/27 02:32:59;;;;;;;47.70;23.83;;;;;;;5.67;56.15;100486.19;4487103;31;34284;-77
2021/03/27 02:35:32;;;;;;;45.53;22.30;;;;;;;5.30;57.41;100489.22;4488278;31;32863;-78
2021/03/27 02:38:10;;;;;;;45.35;23.23;;;;;;;5.46;57.00;100483.81;4493987;31;32368;-78
2021/03/27 02:40:43;;;;;;;47.20;22.02;;;;;;;5.46;56.89;100487.31;4489718;31;33807;-79
2021/03/27 02:43:15;;;;;;;51.17;24.08;;;;;;;5.31;57.17;100490.94;4490601;31;33348;-78
2021/03/27 02:46:01;;;;;;;49.20;23.40;;;;;;;5.39;57.36;100483.88;4490724;31;33455;-78
2021/03/27 02:48:49;;;;;;;44.33;23.27;;;;;;;5.13;58.03;100493.78;4490480;31;33446;-79
2021/03/27 02:51:43;;;;;;;47.90;23.73;;;;;;;5.44;57.07;100490.81;4477965;31;34441;-78
2021/03/27 02:54:40;;;;;;;47.42;22.50;;;;;;;5.56;56.45;100496.78;4477599;31;33352;-78
2021/03/27 02:57:33;;;;;;;46.78;23.35;;;;;;;5.45;57.19;100487.31;4487273;31;33430;-79
2021/03/27 03:00:23;;;;;;;51.95;23.92;;;;;;;5.29;57.09;100497.97;4480170;31;32589;-78
2021/03/27 03:02:56;;;;;;;43.15;21.30;;;;;;;5.31;57.17;100506.66;4490553;31;34728;-78
2021/03/27 03:05:52;;;;;;;50.90;22.67;;;;;;;5.38;57.05;100486.53;4491353;31;33620;-78
2021/03/27 03:08:37;;;;;;;45.97;22.13;;;;;;;5.26;57.23;100492.75;4491535;31;34392;-78
2021/03/27 03:11:24;;;;;;;46.50;23.85;;;;;;;4.98;57.54;100491.31;4491168;31;34381;-77
2021/03/27 03:14:10;;;;;;;47.95;23.58;;;;;;;5.20;57.10;100487.59;4486337;31;33414;-78
2021/03/27 03:17:05;;;;;;;45.72;23.50;;;;;;;5.30;57.16;100485.75;4489815;31;33401;-78
2021/03/27 03:19:51;;;;;;;;;;;;;;;5.45;56.54;100482.94;4488377;31;34391;-79
2021/03/27 03:22:26;;;;;;;45.92;21.95;;;;;;;5.40;56.70;100483.00;4460915;31;33020;-79
2021/03/27 03:24:58;;;;;;;43.28;22.27;;;;;;;5.25;57.36;100487.53;4477116;31;32549;-78
2021/03/27 03:27:43;;;;;;;46.63;22.05;;;;;;;5.27;56.98;100484.03;4492365;31;33350;-78
2021/03/27 03:30:35;;;;;;;45.17;21.85;;;;;;;5.26;56.95;100482.28;4476641;31;34648;-78
2021/03/27 03:33:29;;;;;;;48.58;23.38;;;;;;;5.30;56.77;100484.00;4479022;31;33443;-78
2021/03/27 03:36:00;;;;;;;46.55;22.45;;;;;;;5.04;57.28;100486.03;4486423;31;33196;-78
2021/03/27 03:38:36;;;;;;;42.83;22.30;;;;;;;5.02;57.93;100480.78;4492624;31;33802;-78
2021/03/27 03:41:35;;;;;;;51.95;23.90;;;;;;;5.20;57.65;100484.97;4491080;31;33391;-78
2021/03/27 03:44:33;;;;;;;48.15;21.87;;;;;;;5.10;57.82;100478.13;4464608;31;33048;-78
2021/03/27 03:47:07;;;;;;;44.75;22.23;;;;;;;5.14;57.66;100482.44;4483563;31;32884;-78
2021/03/27 03:49:55;;;;;;;46.40;23.48;;;;;;;4.94;58.25;100479.12;4488558;31;34376;-78
2021/03/27 03:52:34;;;;;;;42.33;21.87;;;;;;;4.98;58.67;100480.84;4489944;31;32707;-78
2021/03/27 03:55:10;;;;;;;45.97;22.52;;;;;;;5.09;57.97;100484.25;4477310;31;33995;-78
2021/03/27 03:57:49;;;;;;;47.58;23.27;;;;;;;4.93;58.46;100466.94;4489486;31;33400;-78
2021/03/27 04:00:24;;;;;;;47.28;22.52;;;;;;;4.74;59.01;100476.72;4478146;31;34385;-79
2021/03/27 04:03:05;;;;;;;44.60;22.37;;;;;;;4.66;60.07;100478.56;4477494;31;34434;-78
2021/03/27 04:05:46;;;;;;;43.95;22.70;;;;;;;4.65;59.77;100475.03;4476456;31;33808;-78
2021/03/27 04:08:32;;;;;;;43.38;22.08;;;;;;;5.02;58.84;100474.69;4487615;31;33226;-78
2021/03/27 04:11:39;;;;;;;45.75;24.58;;;;;;;5.23;58.14;100474.47;4488484;31;33434;-78
2021/03/27 04:14:15;;;;;;;45.20;23.20;;;;;;;5.14;58.00;100474.59;4490303;31;33702;-79
2021/03/27 04:16:44;;;;;;;43.22;22.65;;;;;;;5.14;58.54;100477.19;4489641;31;33414;-78
2021/03/27 04:19:17;;;;;;;41.50;21.40;;;;;;;4.97;58.77;100471.25;4492305;31;33180;-78
2021/03/27 04:22:00;;;;;;;48.45;22.62;;;;;;;4.46;60.57;100476.94;4489482;31;33314;-78
2021/03/27 04:25:03;;;;;;;42.92;21.73;;;;;;;4.50;61.00;100473.44;4489482;31;34779;-78
2021/03/27 04:27:40;;;;;;;43.78;22.70;;;;;;;4.70;60.11;100481.13;4475348;31;34342;-78
2021/03/27 04:30:17;;;;;;;43.33;23.85;;;;;;;4.86;59.41;100474.00;4494125;31;32974;-78
2021/03/27 04:33:27;;;;;;;43.45;22.55;;;;;;;5.05;59.16;100477.28;4489393;31;34444;-78
2021/03/27 04:36:08;;;;;;;43.85;23.00;;;;;;;4.91;59.43;100480.03;4477106;31;33683;-77
2021/03/27 04:38:41;;;;;;;45.15;22.73;;;;;;;4.78;60.23;100491.50;4489161;31;33773;-77
2021/03/27 04:41:33;;;;;;;53.22;24.98;;;;;;;5.15;59.14;100484.16;4479244;31;33285;-77
2021/03/27 04:44:23;;;;;;;41.77;23.83;;;;;;;5.08;58.95;100499.06;4476805;32;33416;-77
2021/03/27 04:47:05;;;;;;;41.25;22.20;;;;;;;5.10;58.97;100484.22;4479482;31;33354;-78
2021/03/27 04:49:52;;;;;;;;;;;;;;;4.88;59.03;100501.00;4482363;31;33949;-78
2021/03/27 04:52:43;;;;;;;44.45;22.60;;;;;;;5.18;58.56;100497.22;4497202;31;33963;-78
2021/03/27 04:55:32;;;;;;;47.40;24.50;;;;;;;4.95;58.83;100501.81;4492826;31;34370;-78
2021/03/27 04:58:14;;;;;;;53.28;24.17;;;;;;;5.18;58.74;100497.22;4491307;31;32660;-78
2021/03/27 05:00:46;;;;;;;43.75;22.98;;;;;;;5.22;58.28;100506.78;4495047;31;33358;-78
2021/03/27 05:03:27;;;;;;;56.37;28.75;;;;;;;5.11;58.30;100500.78;4494833;31;33027;-78
2021/03/27 05:06:19;;;;;;;53.10;27.37;;;;;;;5.18;58.39;100499.84;4493818;31;34251;-78
2021/03/27 05:09:11;;;;;;;52.78;26.33;;;;;;;5.18;58.69;100501.59;4490797;31;34505;-78
2021/03/27 05:11:53;;;;;;;50.22;24.95;;;;;;;4.97;59.80;100506.16;4492641;31;33378;-78
2021/03/27 05:14:41;;;;;;;48.28;24.87;;;;;;;4.90;60.00;100509.72;4475940;31;33189;-77
2021/03/27 05:17:19;;;;;;;50.03;24.48;;;;;;;5.21;59.20;100510.28;4490532;31;34087;-80
2021/03/27 05:19:56;;;;;;;47.42;25.15;;;;;;;5.37;58.75;100516.22;4477649;31;33757;-78
2021/03/27 05:22:26;;;;;;;48.13;25.80;;;;;;;5.52;58.20;100509.94;4485938;31;34029;-78
2021/03/27 05:25:15;;;;;;;45.33;24.17;;;;;;;5.70;57.98;100499.25;4491844;31;32287;-79
2021/03/27 05:28:17;;;;;;;50.35;24.85;;;;;;;5.31;59.23;100505.81;4474829;31;34248;-78
2021/03/27 05:30:51;;;;;;;47.97;22.37;;;;;;;5.57;58.83;100509.00;4488651;31;33953;-78
2021/03/27 05:33:27;;;;;;;49.50;24.58;;;;;;;5.75;58.22;100510.53;4475662;31;31473;-77
2021/03/27 05:36:17;;;;;;;46.63;24.60;;;;;;;6.01;58.14;100517.22;4488782;31;32808;-79
2021/03/27 05:38:53;;;;;;;46.08;23.60;;;;;;;6.31;57.62;100510.66;4489401;31;31623;-79
2021/03/27 05:41:39;;;;;;;45.97;23.65;;;;;;;6.76;56.93;100511.69;4495869;31;33408;-78
2021/03/27 05:44:31;;;;;;;48.38;23.40;;;;;;;7.06;55.34;100498.91;4486406;31;33309;-79
2021/03/27 05:46:59;;;;;;;48.45;23.58;;;;;;;7.05;55.12;100502.44;4490665;31;34669;-79
2021/03/27 05:49:38;;;;;;;51.05;25.20;;;;;;;6.98;55.19;100496.44;4486141;31;33337;-78
2021/03/27 05:52:09;;;;;;;43.25;23.20;;;;;;;7.11;54.95;100497.06;4467218;31;34560;-78
2021/03/27 05:55:17;;;;;;;39.55;22.75;;;;;;;7.02;55.26;100503.34;4493891;31;34159;-79
2021/03/27 05:58:05;;;;;;;47.30;23.50;;;;;;;7.60;53.91;100498.78;4489394;31;32755;-78
2021/03/27 06:00:40;;;;;;;44.25;22.52;;;;;;;7.96;53.59;100497.13;4487582;31;33532;-78
2021/03/27 06:03:26;;;;;;;42.05;22.08;;;;;;;8.10;52.97;100496.81;4474279;31;33299;-78
2021/03/27 06:05:59;;;;;;;39.85;21.27;;;;;;;8.30;52.34;100493.72;4489228;31;33556;-78
2021/03/27 06:08:31;;;;;;;43.28;21.55;;;;;;;8.56;50.91;100495.78;4482660;31;32982;-79
2021/03/27 06:11:01;;;;;;;47.97;22.77;;;;;;;8.68;50.99;100500.72;4489345;31;33526;-79
2021/03/27 06:14:00;;;;;;;47.13;24.95;;;;;;;8.73;50.83;100488.31;4488474;31;33125;-78
2021/03/27 06:16:53;;;;;;;36.58;21.85;;;;;;;9.06;51.13;100493.63;4485417;31;33790;-78
2021/03/27 06:19:39;;;;;;;44.63;22.50;;;;;;;8.76;50.74;100496.12;4486027;31;34152;-79
2021/03/27 06:22:37;;;;;;;54.50;24.60;;;;;;;9.03;49.56;100491.94;4492337;31;34378;-78
2021/03/27 06:25:19;;;;;;;41.47;22.25;;;;;;;8.71;49.80;100495.41;4491358;31;32482;-78
2021/03/27 06:28:21;;;;;;;41.03;22.62;;;;;;;9.28;48.93;100491.28;4464428;31;35278;-78
2021/03/27 06:31:08;;;;;;;45.10;21.95;;;;;;;9.12;49.50;100482.94;4485082;31;32766;-79
2021/03/27 06:33:43;;;;;;;44.40;22.80;;;;;;;9.53;48.58;100483.53;4490919;31;32780;-78
2021/03/27 06:36:36;;;;;;;45.55;22.75;;;;;;;9.19;49.25;100479.22;4485298;31;35090;-78
2021/03/27 06:39:20;;;;;;;44.67;22.33;;;;;;;9.48;47.80;100484.53;4465946;31;34500;-79
2021/03/27 06:42:08;;;;;;;46.85;24.95;;;;;;;9.60;47.51;100482.47;4471155;31;33389;-78
2021/03/27 06:44:38;;;;;;;42.30;22.75;;;;;;;9.84;47.34;100487.03;4490229;31;34340;-78
2021/03/27 06:47:21;;;;;;;42.88;23.45;;;;;;;9.72;47.48;100475.06;4487975;31;33810;-79
2021/03/27 06:50:04;;;;;;;42.05;22.40;;;;;;;10.00;47.15;100476.88;4494656;31;33657;-79
2021/03/27 06:52:42;;;;;;;45.92;25.35;;;;;;;10.20;47.58;100489.44;4485982;31;32731;-79
2021/03/27 06:55:29;;;;;;;42.62;22.20;;;;;;;10.35;46.21;100477.56;4477349;31;31486;-79
2021/03/27 06:58:15;;;;;;;46.03;22.40;;;;;;;10.79;46.04;100472.62;4475631;31;33421;-79
2021/03/27 07:01:29;;;;;;;50.95;24.98;;;;;;;10.95;44.45;100473.81;4491001;31;33362;-79
2021/03/27 07:04:30;;;;;;;50.72;25.35;;;;;;;10.86;45.48;100488.19;4480361;31;34142;-79
2021/03/27 07:07:16;;;;;;;48.87;24.20;;;;;;;10.93;44.67;100476.53;4486932;31;33660;-79
2021/03/27 07:10:21;;;;;;;50.55;27.48;;;;;;;10.70;44.71;100473.78;4473839;31;32866;-80
2021/03/27 07:13:24;;;;;;;41.88;23.00;;;;;;;10.80;44.74;100475.22;4472806;31;34679;-79
2021/03/27 07:16:22;;;;;;;44.28;22.70;;;;;;;10.84;44.83;100466.28;4488834;31;33674;-79
2021/03/27 07:18:59;;;;;;;45.50;23.55;;;;;;;11.09;45.17;100473.34;4487055;31;33569;-79
2021/03/27 07:21:46;;;;;;;41.22;23.65;;;;;;;10.74;45.60;100470.13;4484069;31;33482;-78
2021/03/27 07:24:32;;;;;;;47.42;25.30;;;;;;;11.41;44.58;100472.19;4479592;31;33263;-79
2021/03/27 07:27:06;;;;;;;41.17;23.08;;;;;;;11.71;43.72;100465.75;4484073;31;34542;-79
2021/03/27 07:30:11;;;;;;;44.13;23.00;;;;;;;11.74;43.47;100465.66;4483737;31;33392;-82
2021/03/27 07:32:50;;;;;;;46.30;22.65;;;;;;;11.52;44.68;100470.00;4481656;31;34564;-82
2021/03/27 07:35:39;;;;;;;44.22;23.73;;;;;;;11.87;43.57;100471.37;4471465;31;32656;-82
2021/03/27 07:38:22;;;;;;;41.90;22.27;;;;;;;12.20;42.75;100470.97;4468543;31;33299;-82
2021/03/27 07:41:01;;;;;;;;;;;;;;;11.86;43.37;100474.94;4484842;31;31776;-82
2021/03/27 07:43:34;;;;;;;41.95;23.00;;;;;;;11.51;44.22;100477.09;4484940;31;35040;-85
2021/03/27 07:46:20;;;;;;;40.55;22.75;;;;;;;11.90;43.61;100471.25;4482330;31;32420;-85
2021/03/27 07:49:20;;;;;;;38.15;22.17;;;;;;;11.88;43.63;100467.81;4482187;31;35034;-83
2021/03/27 07:51:57;;;;;;;38.63;21.52;;;;;;;12.04;44.01;100466.28;4485153;31;33724;-83
2021/03/27 07:55:05;;;;;;;40.35;22.08;;;;;;;12.46;42.96;100469.94;4480396;31;33836;-83
2021/03/27 07:57:57;;;;;;;35.40;20.20;;;;;;;12.51;42.79;100467.97;4480295;31;34505;-82
2021/03/27 08:00:48;;;;;;;38.45;21.50;;;;;;;12.65;42.92;100476.19;4482956;31;33076;-83
2021/03/27 08:03:40;;;;;;;38.30;22.27;;;;;;;12.96;41.95;100475.78;4486208;31;33705;-81
2021/03/27 08:06:10;;;;;;;38.50;21.33;;;;;;;13.39;42.10;100471.28;4483224;31;33299;-81
2021/03/27 08:08:55;;;;;;;39.72;20.65;;;;;;;13.35;40.92;100480.31;4468485;31;35809;-80
2021/03/27 08:11:28;;;;;;;37.72;20.62;;;;;;;13.35;41.39;100475.00;4473120;31;33713;-80
2021/03/27 08:14:21;;;;;;;37.70;19.60;;;;;;;13.48;41.79;100472.62;4473933;31;31779;-80
2021/03/27 08:16:52;;;;;;;37.45;19.87;;;;;;;14.12;40.61;100475.00;4465983;31;35098;-81
2021/03/27 08:19:39;;;;;;;38.13;21.07;;;;;;;14.06;41.36;100465.53;4477364;31;31850;-80
2021/03/27 08:22:32;;;;;;;32.25;19.23;;;;;;;14.30;39.41;100465.28;4483552;31;33212;-81
2021/03/27 08:25:19;;;;;;;33.03;20.45;;;;;;;14.44;39.93;100467.28;4476916;31;34093;-81
2021/03/27 08:28:10;;;;;;;38.03;19.90;;;;;;;14.68;39.64;100462.56;4475543;31;34691;-80
2021/03/27 08:31:08;;;;;;;37.65;20.83;;;;;;;14.72;39.63;100465.00;4462215;31;34815;-80
2021/03/27 08:33:54;;;;;;;32.63;19.70;;;;;;;15.24;39.06;100461.44;4464576;31;33228;-80
2021/03/27 08:36:37;;;;;;;33.75;18.50;;;;;;;14.92;39.58;100469.31;4473826;31;33402;-81
2021/03/27 08:39:23;;;;;;;;;;;;;;;15.27;38.43;100466.59;4474765;31;34581;-82
2021/03/27 08:41:57;;;;;;;30.02;17.77;;;;;;;15.72;37.87;100452.69;4476934;31;33598;-80
2021/03/27 08:44:55;;;;;;;27.50;16.52;;;;;;;15.27;37.98;100446.19;4474461;31;33152;-81
2021/03/27 08:47:53;;;;;;;27.42;16.42;;;;;;;15.78;36.93;100451.50;4476233;31;32907;-81
2021/03/27 08:50:40;;;;;;;29.02;16.40;;;;;;;16.05;36.46;100449.09;4478440;31;33555;-81
2021/03/27 08:53:50;;;;;;;30.90;16.50;;;;;;;16.10;38.08;100445.22;4482900;31;33692;-81
2021/03/27 08:56:52;;;;;;;25.08;15.40;;;;;;;15.76;36.81;100448.03;4460807;31;32312;-81
2021/03/27 08:59:47;;;;;;;30.48;15.63;;;;;;;16.53;37.69;100437.44;4480379;31;33694;-85
2021/03/27 09:02:29;;;;;;;26.27;14.60;;;;;;;16.50;37.87;100442.94;4479567;31;33484;-86
2021/03/27 09:05:40;;;;;;;28.33;15.65;;;;;;;16.49;35.84;100443.03;4480294;31;31875;-84
2021/03/27 09:08:16;;;;;;;30.15;15.18;;;;;;;16.79;35.88;100432.41;4470739;31;35125;-84
2021/03/27 09:11:01;;;;;;;23.40;13.85;;;;;;;17.34;34.96;100429.09;4480295;31;32609;-84
2021/03/27 09:13:48;;;;;;;27.27;14.57;;;;;;;17.53;36.74;100431.47;4477579;31;33733;-85
2021/03/27 09:16:53;;;;;;;23.45;13.45;;;;;;;17.57;33.86;100417.81;4480959;31;33730;-85
2021/03/27 09:19:54;;;;;;;19.67;12.20;;;;;;;17.55;34.59;100425.06;4486702;31;34173;-84
2021/03/27 09:22:50;;;;;;;23.35;12.23;;;;;;;17.70;34.25;100417.03;4482118;31;33593;-83
2021/03/27 09:25:35;;;;;;;24.42;13.07;;;;;;;17.97;33.98;100426.00;4469832;31;34550;-85
2021/03/27 09:28:09;;;;;;;20.33;13.70;;;;;;;18.11;35.82;100417.94;4481046;31;33765;-85
2021/03/27 09:31:18;;;;;;;24.05;13.32;;;;;;;18.06;33.29;100414.72;4457624;31;35746;-85
2021/03/27 09:33:54;;;;;;;25.15;12.93;;;;;;;18.04;33.50;100411.28;4481698;31;33633;-85
2021/03/27 09:36:28;;;;;;;20.90;12.43;;;;;;;17.88;35.13;100406.06;4475831;31;33800;-85
2021/03/27 09:39:51;;;;;;;20.20;12.02;;;;;;;18.37;33.38;100407.34;4478550;31;34116;-85
2021/03/27 09:42:40;;;;;;;19.55;11.50;;;;;;;18.51;32.74;100393.91;4419201;32;30894;-85
2021/03/27 09:45:21;;;;;;;23.27;11.25;;;;;;;18.51;34.55;100393.91;4419025;32;33329;-85
2021/03/27 09:48:13;;;;;;;20.45;11.05;;;;;;;18.99;34.16;100386.22;4455709;31;36090;-85
2021/03/27 09:50:49;;;;;;;19.33;11.80;;;;;;;19.40;32.36;100383.28;4480858;31;33315;-85
2021/03/27 09:53:35;;;;;;;21.52;11.88;;;;;;;19.11;32.79;100377.31;4484359;31;33341;-85
2021/03/27 09:56:05;;;;;;;19.75;10.80;;;;;;;19.24;31.94;100384.50;4464743;31;35551;-85
2021/03/27 09:58:39;;;;;;;21.83;12.15;;;;;;;18.87;32.07;100387.91;4478339;31;31900;-85
2021/03/27 10:01:24;;;;;;;19.85;11.88;;;;;;;18.81;31.91;100390.16;4484224;31;33375;-85
2021/03/27 10:04:07;;;;;;;15.77;10.60;;;;;;;19.14;32.09;100379.81;4472543;31;33162;-85
2021/03/27 10:06:37;;;;;;;;;;;;;;;19.13;31.65;100370.06;4484458;31;33238;-85
2021/03/27 10:09:07;;;;;;;17.42;10.32;;;;;;;19.06;33.33;100378.63;4470140;31;34736;-85
2021/03/27 10:11:36;;;;;;;16.08;9.95;;;;;;;18.73;32.46;100381.81;4488927;31;33368;-85
2021/03/27 10:14:20;;;;;;;18.62;10.13;;;;;;;18.31;33.13;100381.88;4484750;31;33227;-86
2021/03/27 10:16:58;;;;;;;19.60;9.90;;;;;;;18.34;32.75;100375.47;4484732;31;33185;-84
2021/03/27 10:19:29;;;;;;;15.35;9.38;;;;;;;18.82;33.56;100365.13;4485878;31;32398;-85
2021/03/27 10:22:21;;;;;;;15.77;9.10;;;;;;;19.60;30.45;100368.50;4471734;31;35213;-85
2021/03/27 10:25:51;;;;;;;16.62;9.98;;;;;;;19.29;31.84;100367.16;4485469;31;35297;-86
2021/03/27 10:28:24;;;;;;;17.20;9.32;;;;;;;19.57;31.25;100355.31;4424321;31;33519;-86
2021/03/27 10:30:59;;;;;;;19.45;10.68;;;;;;;19.75;31.30;100353.16;4475458;31;35303;-87
2021/03/27 10:33:40;;;;;;;21.15;9.77;;;;;;;18.86;31.66;100356.78;4474101;31;33661;-83
2021/03/27 10:36:13;;;;;;;16.40;10.50;;;;;;;18.86;32.50;100350.56;4483717;31;33034;-83
2021/03/27 10:38:56;;;;;;;17.02;9.40;;;;;;;19.04;32.26;100349.28;4472677;31;35576;-84
2021/03/27 10:41:43;;;;;;;18.40;10.05;;;;;;;19.53;32.51;100345.78;4487669;31;34827;-83
2021/03/27 10:45:03;;;;;;;18.92;9.43;;;;;;;19.50;31.26;100355.84;4475351;31;35443;-84
2021/03/27 10:47:34;;;;;;;21.05;9.70;;;;;;;20.02;30.82;100352.94;4471306;31;35054;-84
2021/03/27 10:50:22;;;;;;;12.07;8.70;;;;;;;20.43;29.44;100340.94;4485402;31;34389;-84
2021/03/27 10:53:27;;;;;;;11.07;7.25;;;;;;;20.15;30.29;100344.84;4473138;31;35443;-84
2021/03/27 10:56:03;;;;;;;17.12;9.00;;;;;;;20.19;30.18;100339.13;4462722;31;34506;-84
2021/03/27 10:58:30;;;;;;;15.48;8.00;;;;;;;20.54;30.46;100335.63;4498003;31;34452;-84
2021/03/27 11:01:01;;;;;;;18.37;9.05;;;;;;;20.01;29.72;100340.50;4475407;31;33296;-84
2021/03/27 11:03:46;;;;;;;19.83;8.30;;;;;;;20.74;29.05;100335.91;4487120;31;35341;-83
2021/03/27 11:06:42;;;;;;;14.38;7.80;;;;;;;20.23;29.64;100333.56;4486143;31;33950;-83
2021/03/27 11:09:32;;;;;;;12.43;6.70;;;;;;;19.93;29.08;100326.81;4454381;31;33788;-83
2021/03/27 11:12:37;;;;;;;11.73;6.93;;;;;;;20.41;29.68;100329.44;4476232;31;35576;-84
2021/03/27 11:15:13;;;;;;;15.32;7.40;;;;;;;20.02;29.65;100333.31;4492440;31;33713;-83
2021/03/27 11:18:29;;;;;;;11.00;6.65;;;;;;;19.99;29.77;100323.69;4482896;31;95664;-83
2021/03/27 11:21:32;;;;;;;11.00;6.53;;;;;;;20.53;29.32;100335.75;4482761;31;33203;-84
2021/03/27 11:24:27;;;;;;;11.85;6.82;;;;;;;20.03;29.34;100327.84;4465651;31;34246;-84
2021/03/27 11:27:32;;;;;;;16.58;7.10;;;;;;;20.58;29.31;100331.75;4472655;31;33746;-84
2021/03/27 11:30:17;;;;;;;12.75;7.05;;;;;;;20.55;30.18;100323.06;4489108;31;37276;-84
2021/03/27 11:32:54;;;;;;;11.60;6.65;;;;;;;20.39;30.07;100318.00;4492516;31;34117;-83
2021/03/27 11:35:32;;;;;;;9.00;5.68;;;;;;;20.33;29.37;100323.84;4463246;31;32355;-84
2021/03/27 11:38:09;;;;;;;9.30;5.87;;;;;;;20.18;30.05;100331.22;4485961;31;34559;-84
2021/03/27 11:40:44;;;;;;;16.12;5.70;;;;;;;19.90;31.07;100332.44;4484497;31;35755;-84
2021/03/27 11:43:43;;;;;;;8.40;5.55;;;;;;;20.05;29.82;100327.75;4474644;31;34422;-84
2021/03/27 11:46:18;;;;;;;8.77;5.65;;;;;;;19.92;30.26;100330.47;4483305;31;33785;-84
2021/03/27 11:48:48;;;;;;;11.23;5.37;;;;;;;20.28;29.53;100320.66;4490277;31;31943;-85
2021/03/27 11:51:21;;;;;;;11.63;5.90;;;;;;;20.87;29.01;100308.00;4487932;31;31819;-85
2021/03/27 11:53:58;;;;;;;7.35;4.95;;;;;;;20.37;30.05;100315.44;4483746;31;32873;-84
2021/03/27 11:56:32;;;;;;;11.48;5.07;;;;;;;20.73;31.29;100313.59;4488013;31;34371;-84
2021/03/27 12:02:09;;;;;;;6.45;4.70;;;;;;;20.55;29.45;100306.97;4491740;31;34504;-85
2021/03/27 12:04:57;;;;;;;11.38;6.40;;;;;;;20.56;28.41;100306.88;4487283;31;33935;-84
2021/03/27 12:07:37;;;;;;;11.12;6.15;;;;;;;20.28;29.37;100307.25;4483461;31;34072;-84
2021/03/27 12:10:18;;;;;;;8.73;5.50;;;;;;;20.57;29.40;100300.53;4483580;31;34164;-84
2021/03/27 12:13:20;;;;;;;10.13;5.97;;;;;;;20.76;28.41;100310.69;4473832;31;34691;-84
2021/03/27 12:16:05;;;;;;;10.80;5.57;;;;;;;20.55;29.53;100306.97;4470936;31;32813;-84
2021/03/27 12:18:52;;;;;;;9.48;5.55;;;;;;;20.34;29.05;100312.97;4456015;31;34796;-85
2021/03/27 12:21:29;;;;;;;7.72;5.50;;;;;;;20.20;29.55;100315.84;4466978;31;33638;-84
2021/03/27 12:24:14;;;;;;;9.77;5.78;;;;;;;20.24;30.26;100319.16;4473507;31;31979;-84
2021/03/27 12:26:45;;;;;;;10.15;5.20;;;;;;;19.94;30.79;100313.31;4485854;31;32986;-84
2021/03/27 12:29:19;;;;;;;9.00;6.25;;;;;;;20.33;29.88;100313.12;4483695;31;32999;-85
2021/03/27 12:31:59;;;;;;;8.75;5.72;;;;;;;20.24;29.39;100319.16;4484690;31;33359;-85
2021/03/27 12:34:34;;;;;;;10.88;6.20;;;;;;;20.12;29.34;100311.06;4492216;31;31816;-84
2021/03/27 12:37:01;;;;;;;12.18;6.05;;;;;;;19.92;29.51;100312.56;4478625;31;33011;-84
2021/03/27 12:39:40;;;;;;;12.25;5.82;;;;;;;19.83;30.88;100315.91;4489658;31;33493;-84